createdAt,value
2022-09-03T00:00:09.481Z,100451.56
2022-09-03T00:03:27.142Z,100455.00
2022-09-03T00:06:32.107Z,100451.78
2022-09-03T00:09:39.871Z,100456.50
2022-09-03T00:12:43.207Z,100453.78
2022-09-03T00:15:45.190Z,100451.03
2022-09-03T00:18:54.641Z,100453.38
2022-09-03T00:21:57.816Z,100462.81
2022-09-03T00:25:01.079Z,100462.09
2022-09-03T00:28:03.291Z,100448.38
2022-09-03T00:31:14.060Z,100447.97
2022-09-03T00:34:32.809Z,100449.75
2022-09-03T00:37:38.088Z,100445.28
2022-09-03T00:40:43.800Z,100447.28
2022-09-03T00:43:46.301Z,100447.56
2022-09-03T00:46:57.154Z,100449.91
2022-09-03T00:50:12.959Z,100453.75
2022-09-03T00:53:14.838Z,100453.47
2022-09-03T00:56:25.999Z,100453.41
2022-09-03T00:59:31.144Z,100450.75
2022-09-03T01:02:34.190Z,100457.50
2022-09-03T01:05:48.424Z,100441.25
2022-09-03T01:08:57.727Z,100457.25
2022-09-03T01:12:01.572Z,100461.06
2022-09-03T01:15:09.675Z,100456.50
2022-09-03T01:18:14.833Z,100456.72
2022-09-03T01:21:34.807Z,100469.47
2022-09-03T01:25:00.577Z,100475.41
2022-09-03T01:28:14.831Z,100477.09
2022-09-03T01:31:19.539Z,100475.25
2022-09-03T01:34:33.918Z,100478.06
2022-09-03T01:37:47.872Z,100477.22
2022-09-03T01:40:59.085Z,100480.53
2022-09-03T01:44:07.134Z,100476.19
2022-09-03T01:47:23.553Z,100480.94
2022-09-03T01:50:27.152Z,100477.69
2022-09-03T01:53:31.970Z,100474.81
2022-09-03T01:56:36.795Z,100478.19
2022-09-03T01:59:47.244Z,100477.22
2022-09-03T02:02:51.430Z,100473.38
2022-09-03T02:05:53.438Z,100482.22
2022-09-03T02:08:55.278Z,100481.91
2022-09-03T02:12:04.055Z,100486.28
2022-09-03T02:15:07.329Z,100486.78
2022-09-03T02:18:11.373Z,100495.41
2022-09-03T02:21:18.300Z,100490.63
2022-09-03T02:24:20.172Z,100494.13
2022-09-03T02:27:22.042Z,100491.44
2022-09-03T02:30:24.001Z,100501.91
2022-09-03T02:33:25.882Z,100497.94
2022-09-03T02:36:29.367Z,100489.88
2022-09-03T02:39:32.103Z,100487.09
2022-09-03T02:42:36.600Z,100493.59
2022-09-03T02:45:38.991Z,100493.03
2022-09-03T02:48:40.930Z,100496.75
2022-09-03T02:51:43.978Z,100496.62
2022-09-03T02:54:45.964Z,100494.81
2022-09-03T02:57:47.838Z,100496.59
2022-09-03T03:00:49.701Z,100495.00
2022-09-03T03:03:51.598Z,100499.34
2022-09-03T03:06:53.504Z,100493.03
2022-09-03T03:09:55.401Z,100489.84
2022-09-03T03:12:57.298Z,100495.41
2022-09-03T03:16:00.022Z,100497.00
2022-09-03T03:19:01.901Z,100496.91
2022-09-03T03:22:03.824Z,100495.56
2022-09-03T03:25:05.893Z,100498.94
2022-09-03T03:28:07.859Z,100503.31
2022-09-03T03:31:11.621Z,100498.37
2022-09-03T03:34:13.555Z,100511.37
2022-09-03T03:37:15.447Z,100518.47
2022-09-03T03:40:17.350Z,100517.25
2022-09-03T03:43:19.206Z,100515.37
2022-09-03T03:46:22.215Z,100514.00
2022-09-03T03:49:24.121Z,100514.22
2022-09-03T03:52:26.484Z,100515.66
2022-09-03T03:55:28.299Z,100520.25
2022-09-03T03:58:33.113Z,100519.53
2022-09-03T04:01:35.035Z,100522.22
2022-09-03T04:04:37.034Z,100515.28
2022-09-03T04:07:38.844Z,100512.53
2022-09-03T04:10:40.709Z,100520.16
2022-09-03T04:13:43.216Z,100520.59
2022-09-03T04:16:48.488Z,100532.69
2022-09-03T04:19:50.721Z,100531.63
2022-09-03T04:22:52.566Z,100536.66
2022-09-03T04:25:54.395Z,100541.97
2022-09-03T04:28:56.866Z,100539.47
2022-09-03T04:32:18.623Z,100537.72
2022-09-03T04:35:23.641Z,100538.19
2022-09-03T04:38:25.610Z,100538.13
2022-09-03T04:41:28.232Z,100540.56
2022-09-03T04:44:30.056Z,100543.59
2022-09-03T04:47:32.089Z,100546.22
2022-09-03T04:50:35.665Z,100555.00
2022-09-03T04:53:38.446Z,100560.66
2022-09-03T04:56:40.715Z,100554.12
2022-09-03T04:59:42.839Z,100562.59
2022-09-03T05:02:47.143Z,100562.78
2022-09-03T05:05:53.015Z,100555.37
2022-09-03T05:08:55.584Z,100555.47
2022-09-03T05:11:57.488Z,100547.09
2022-09-03T05:15:00.158Z,100557.78
2022-09-03T05:18:02.337Z,100550.69
2022-09-03T05:21:08.161Z,100551.19
2022-09-03T05:24:11.491Z,100554.31
2022-09-03T05:27:14.225Z,100551.44
2022-09-03T05:30:16.335Z,100549.50
2022-09-03T05:33:18.210Z,100540.66
2022-09-03T05:36:23.552Z,100542.19
2022-09-03T05:39:25.449Z,100539.53
2022-09-03T05:42:27.767Z,100548.69
2022-09-03T05:45:32.186Z,100550.72
2022-09-03T05:48:34.491Z,100542.91
2022-09-03T05:51:36.831Z,100539.25
2022-09-03T05:54:39.443Z,100547.31
2022-09-03T05:57:41.415Z,100549.16
2022-09-03T06:00:43.423Z,100552.56
2022-09-03T06:03:45.994Z,100555.22
2022-09-03T06:06:48.069Z,100561.06
2022-09-03T06:09:50.424Z,100558.13
2022-09-03T06:12:52.347Z,100556.06
2022-09-03T06:15:57.848Z,100554.63
2022-09-03T06:19:00.147Z,100555.78
2022-09-03T06:22:02.193Z,100552.16
2022-09-03T06:25:04.156Z,100541.38
2022-09-03T06:28:08.983Z,100544.34
2022-09-03T06:31:11.919Z,100543.91
2022-09-03T06:34:13.807Z,100540.06
2022-09-03T06:37:15.716Z,100533.38
2022-09-03T06:40:22.602Z,100543.59
2022-09-03T06:43:24.619Z,100529.75
2022-09-03T06:46:26.730Z,100526.88
2022-09-03T06:49:28.837Z,100531.66
2022-09-03T06:52:30.713Z,100524.13
2022-09-03T06:55:32.566Z,100516.94
2022-09-03T06:58:40.057Z,100517.53
2022-09-03T07:01:45.421Z,100523.84
2022-09-03T07:04:49.299Z,100522.63
2022-09-03T07:07:51.179Z,100530.66
2022-09-03T07:10:53.518Z,100520.34
2022-09-03T07:13:55.966Z,100524.16
2022-09-03T07:16:57.830Z,100523.41
2022-09-03T07:19:59.824Z,100521.34
2022-09-03T07:23:01.725Z,100512.22
2022-09-03T07:26:05.132Z,100517.28
2022-09-03T07:29:11.675Z,100511.63
2022-09-03T07:32:13.680Z,100512.50
2022-09-03T07:35:15.534Z,100501.94
2022-09-03T07:38:19.199Z,100504.47
2022-09-03T07:41:27.675Z,100505.75
2022-09-03T07:44:31.083Z,100501.56
2022-09-03T07:47:34.600Z,100513.69
2022-09-03T07:50:39.307Z,100516.78
2022-09-03T07:53:41.182Z,100513.03
2022-09-03T07:56:43.014Z,100509.94
2022-09-03T07:59:44.920Z,100516.38
2022-09-03T08:02:46.738Z,100523.38
2022-09-03T08:05:48.658Z,100530.81
2022-09-03T08:09:00.753Z,100516.53
2022-09-03T08:12:06.237Z,100515.72
2022-09-03T08:15:08.543Z,100515.97
2022-09-03T08:18:10.393Z,100522.25
2022-09-03T08:21:15.846Z,100521.25
2022-09-03T08:24:19.363Z,100524.50
2022-09-03T08:27:26.183Z,100520.72
2022-09-03T08:30:28.122Z,100514.22
2022-09-03T08:33:38.948Z,100512.69
2022-09-03T08:36:44.485Z,100517.78
2022-09-03T08:39:46.653Z,100512.81
2022-09-03T08:43:19.006Z,100514.25
2022-09-03T08:46:21.425Z,100506.38
2022-09-03T08:49:28.099Z,100516.88
2022-09-03T08:52:32.553Z,100512.63
2022-09-03T08:55:36.304Z,100505.75
2022-09-03T08:58:44.843Z,100518.00
2022-09-03T09:01:56.250Z,100511.44
2022-09-03T09:05:07.051Z,100510.25
2022-09-03T09:08:21.465Z,100505.63
2022-09-03T09:11:23.433Z,100499.22
2022-09-03T09:14:28.613Z,100497.28
2022-09-03T09:17:52.369Z,100487.25
2022-09-03T09:21:07.882Z,100497.44
2022-09-03T09:24:12.007Z,100490.09
2022-09-03T09:27:17.347Z,100493.34
2022-09-03T09:30:19.595Z,100492.97
2022-09-03T09:33:22.656Z,100487.72
2022-09-03T09:36:24.546Z,100480.19
2022-09-03T09:39:26.581Z,100483.12
2022-09-03T09:42:34.092Z,100483.12
2022-09-03T09:45:37.329Z,100482.47
2022-09-03T09:48:41.000Z,100481.03
2022-09-03T09:51:43.023Z,100487.16
2022-09-03T09:54:48.501Z,100485.22
2022-09-03T09:57:53.338Z,100483.44
2022-09-03T10:01:00.227Z,100484.37
2022-09-03T10:04:10.179Z,100480.38
2022-09-03T10:07:21.467Z,100471.84
2022-09-03T10:10:23.310Z,100478.03
2022-09-03T10:13:35.169Z,100477.69
2022-09-03T10:16:38.023Z,100487.34
2022-09-03T10:20:15.307Z,100487.50
2022-09-03T10:23:29.985Z,100485.69
2022-09-03T10:26:33.203Z,100489.78
2022-09-03T10:29:35.066Z,100486.50
2022-09-03T10:32:59.450Z,100482.66
2022-09-03T10:36:06.876Z,100486.84
2022-09-03T10:39:14.062Z,100492.22
2022-09-03T10:42:35.821Z,100484.03
2022-09-03T10:45:40.531Z,100483.41
2022-09-03T10:48:50.541Z,100487.22
2022-09-03T10:52:01.841Z,100471.34
2022-09-03T10:55:06.757Z,100479.66
2022-09-03T10:58:08.643Z,100470.09
2022-09-03T11:01:13.370Z,100459.97
2022-09-03T11:04:20.360Z,100462.44
2022-09-03T11:07:23.346Z,100460.56
2022-09-03T11:10:31.297Z,100450.72
2022-09-03T11:13:35.503Z,100454.34
2022-09-03T11:16:42.513Z,100455.00
2022-09-03T11:19:51.314Z,100455.41
2022-09-03T11:22:54.539Z,100455.09
2022-09-03T11:25:57.145Z,100453.00
2022-09-03T11:29:00.654Z,100454.50
2022-09-03T11:32:07.910Z,100459.41
2022-09-03T11:35:16.967Z,100457.78
2022-09-03T11:38:21.457Z,100449.12
2022-09-03T11:41:23.334Z,100451.53
2022-09-03T11:44:25.244Z,100443.84
2022-09-03T11:47:40.361Z,100447.81
2022-09-03T11:50:51.018Z,100449.09
2022-09-03T11:53:56.779Z,100450.91
2022-09-03T11:57:06.840Z,100457.00
2022-09-03T12:00:18.230Z,100443.87
2022-09-03T12:03:22.105Z,100456.72
2022-09-03T12:06:26.963Z,100445.41
2022-09-03T12:09:34.971Z,100448.94
2022-09-03T12:12:39.754Z,100449.72
2022-09-03T12:16:00.072Z,100450.19
2022-09-03T12:19:04.703Z,100436.31
2022-09-03T12:22:06.623Z,100446.66
2022-09-03T12:25:13.114Z,100438.84
2022-09-03T12:28:19.821Z,100441.84
2022-09-03T12:31:25.374Z,100439.44
2022-09-03T12:34:27.785Z,100443.41
2022-09-03T12:44:19.600Z,100432.94
2022-09-03T12:47:40.133Z,100425.00
2022-09-03T12:50:48.591Z,100428.19
2022-09-03T12:53:51.872Z,100421.41
2022-09-03T12:56:57.561Z,100424.75
2022-09-03T13:00:00.896Z,100426.31
2022-09-03T13:03:07.189Z,100435.47
2022-09-03T13:06:10.288Z,100418.81
2022-09-03T13:09:12.136Z,100427.78
2022-09-03T13:12:24.572Z,100424.22
2022-09-03T13:15:28.204Z,100437.78
2022-09-03T13:18:50.345Z,100434.38
2022-09-03T13:22:10.792Z,100421.84
2022-09-03T13:25:31.424Z,100418.62
2022-09-03T13:28:56.543Z,100423.25
2022-09-03T13:32:04.017Z,100426.38
2022-09-03T13:35:26.662Z,100421.09
2022-09-03T13:38:43.494Z,100421.41
2022-09-03T13:41:50.046Z,100414.31
2022-09-03T13:45:27.234Z,100409.94
2022-09-03T13:48:49.947Z,100406.72
2022-09-03T13:51:53.307Z,100413.72
2022-09-03T13:54:56.306Z,100421.19
2022-09-03T13:58:01.674Z,100415.09
2022-09-03T14:01:23.384Z,100416.31
2022-09-03T14:04:30.350Z,100412.12
2022-09-03T14:08:08.437Z,100406.41
2022-09-03T14:11:30.549Z,100405.12
2022-09-03T14:14:37.212Z,100402.69
2022-09-03T14:17:59.778Z,100404.34
2022-09-03T14:21:02.755Z,100396.03
2022-09-03T14:24:10.967Z,100405.72
2022-09-03T14:27:12.869Z,100398.81
2022-09-03T14:30:17.929Z,100390.00
2022-09-03T14:33:28.273Z,100388.53
2022-09-03T14:36:37.855Z,100392.03
2022-09-03T14:39:55.637Z,100395.44
2022-09-03T14:43:03.648Z,100396.91
2022-09-03T14:46:20.866Z,100389.91
2022-09-03T14:49:37.875Z,100386.28
2022-09-03T14:52:46.431Z,100387.31
2022-09-03T14:55:48.262Z,100382.97
2022-09-03T14:58:59.240Z,100380.25
2022-09-03T15:02:16.746Z,100380.59
2022-09-03T15:05:34.110Z,100385.38
2022-09-03T15:08:39.654Z,100389.41
2022-09-03T15:12:00.610Z,100397.78
2022-09-03T15:15:06.485Z,100401.59
2022-09-03T15:18:30.031Z,100396.13
2022-09-03T15:21:40.998Z,100403.37
2022-09-03T15:24:46.134Z,100396.53
2022-09-03T15:28:00.478Z,100391.00
2022-09-03T15:31:05.297Z,100382.13
2022-09-03T15:34:19.642Z,100384.78
2022-09-03T15:37:23.442Z,100393.16
2022-09-03T15:40:32.578Z,100385.81
2022-09-03T15:43:35.233Z,100387.88
2022-09-03T15:46:46.734Z,100384.78
2022-09-03T15:49:48.586Z,100381.44
2022-09-03T15:52:56.424Z,100390.84
2022-09-03T15:56:17.171Z,100396.47
2022-09-03T15:59:19.035Z,100393.69
2022-09-03T16:02:26.484Z,100390.88
2022-09-03T16:05:39.312Z,100394.50
2022-09-03T16:08:47.118Z,100388.78
2022-09-03T16:11:48.935Z,100395.16
2022-09-03T16:15:10.982Z,100392.22
2022-09-03T16:18:26.284Z,100388.91
2022-09-03T16:21:39.266Z,100387.75
2022-09-03T16:24:44.246Z,100385.31
2022-09-03T16:27:57.119Z,100395.59
2022-09-03T16:31:05.170Z,100395.81
2022-09-03T16:34:18.492Z,100405.84
2022-09-03T16:37:23.899Z,100402.34
2022-09-03T16:40:28.834Z,100401.16
2022-09-03T16:43:41.103Z,100400.81
2022-09-03T16:46:50.712Z,100404.78
2022-09-03T16:50:00.287Z,100405.78
2022-09-03T16:53:05.757Z,100407.09
2022-09-03T16:56:11.009Z,100402.13
2022-09-03T16:59:28.177Z,100405.09
2022-09-03T17:02:42.369Z,100400.78
2022-09-03T17:06:07.693Z,100404.94
2022-09-03T17:09:29.872Z,100414.25
2022-09-03T17:12:37.932Z,100416.72
2022-09-03T17:15:39.807Z,100418.84
2022-09-03T17:18:44.761Z,100422.78
2022-09-03T17:21:46.865Z,100424.91
2022-09-03T17:25:04.670Z,100423.97
2022-09-03T17:28:22.714Z,100427.84
2022-09-03T17:31:26.591Z,100428.81
2022-09-03T17:34:39.598Z,100428.69
2022-09-03T17:37:53.699Z,100435.75
2022-09-03T17:40:59.105Z,100430.34
2022-09-03T17:44:05.515Z,100440.94
2022-09-03T17:47:26.244Z,100439.09
2022-09-03T17:50:28.368Z,100442.78
2022-09-03T17:53:47.494Z,100445.41
2022-09-03T17:56:57.773Z,100447.88
2022-09-03T18:00:01.648Z,100458.56
2022-09-03T18:03:12.761Z,100450.81
2022-09-03T18:06:26.140Z,100461.84
2022-09-03T18:09:37.635Z,100458.50
2022-09-03T18:12:39.879Z,100462.31
2022-09-03T18:15:44.832Z,100470.09
2022-09-03T18:18:48.220Z,100481.09
2022-09-03T18:22:08.849Z,100475.13
2022-09-03T18:25:29.702Z,100485.94
2022-09-03T18:29:13.478Z,100483.03
2022-09-03T18:32:34.050Z,100490.97
2022-09-03T18:35:54.473Z,100493.06
2022-09-03T18:39:21.909Z,100493.34
2022-09-03T18:42:51.637Z,100493.91
2022-09-03T18:50:13.023Z,100496.03
2022-09-03T18:53:37.282Z,100497.22
2022-09-03T18:57:03.768Z,100492.50
2022-09-03T19:00:29.222Z,100491.31
2022-09-03T19:04:09.176Z,100493.25
2022-09-03T19:07:29.675Z,100500.03
2022-09-03T19:10:59.837Z,100499.75
2022-09-03T19:14:21.167Z,100503.00
2022-09-03T19:17:48.198Z,100499.34
2022-09-03T19:21:27.739Z,100506.13
2022-09-03T19:24:48.885Z,100499.50
2022-09-03T19:28:17.242Z,100497.19
2022-09-03T19:31:41.843Z,100500.59
2022-09-03T19:35:17.982Z,100500.03
2022-09-03T19:38:38.499Z,100508.69
2022-09-03T19:42:07.734Z,100502.75
2022-09-03T19:45:34.182Z,100511.37
2022-09-03T19:49:03.746Z,100510.47
2022-09-03T19:52:33.499Z,100509.06
2022-09-03T19:55:55.315Z,100516.72
2022-09-03T19:59:19.014Z,100522.38
2022-09-03T20:02:39.709Z,100524.16
2022-09-03T20:06:00.421Z,100515.75
2022-09-03T20:09:27.262Z,100521.06
2022-09-03T20:12:32.537Z,100532.63
2022-09-03T20:15:52.977Z,100540.69
2022-09-03T20:19:09.845Z,100546.03
2022-09-03T20:22:25.143Z,100550.06
2022-09-03T20:25:30.728Z,100547.03
2022-09-03T20:28:37.817Z,100552.69
2022-09-03T20:31:48.825Z,100555.56
2022-09-03T20:35:09.212Z,100556.16
2022-09-03T20:38:17.172Z,100561.44
2022-09-03T20:41:41.319Z,100564.19
2022-09-03T20:44:49.228Z,100564.47
2022-09-03T20:48:01.314Z,100570.88
2022-09-03T20:51:14.230Z,100578.59
2022-09-03T20:54:31.316Z,100579.56
2022-09-03T20:57:45.991Z,100584.72
2022-09-03T21:00:53.730Z,100579.19
2022-09-03T21:04:14.578Z,100582.97
2022-09-03T21:07:26.119Z,100583.19
2022-09-03T21:10:30.147Z,100588.97
2022-09-03T21:13:40.512Z,100593.28
2022-09-03T21:16:42.327Z,100583.50
2022-09-03T21:19:55.164Z,100593.63
2022-09-03T21:23:00.071Z,100597.16
2022-09-03T21:26:15.203Z,100594.41
2022-09-03T21:29:27.069Z,100600.03
2022-09-03T21:32:34.188Z,100596.00
2022-09-03T21:35:38.130Z,100604.72
2022-09-03T21:38:40.223Z,100598.78
2022-09-03T21:41:45.324Z,100602.31
2022-09-03T21:44:51.362Z,100598.31
2022-09-03T21:47:58.894Z,100600.44
2022-09-03T21:51:01.526Z,100614.72
2022-09-03T21:54:07.476Z,100616.78
2022-09-03T21:57:13.014Z,100618.84
2022-09-03T22:00:19.257Z,100618.00
2022-09-03T22:03:21.657Z,100609.16
2022-09-03T22:06:28.746Z,100612.81
2022-09-03T22:09:42.155Z,100606.28
2022-09-03T22:12:46.430Z,100603.63
2022-09-03T22:15:51.172Z,100610.00
2022-09-03T22:18:54.051Z,100613.41
2022-09-03T22:21:59.576Z,100618.59
2022-09-03T22:25:04.999Z,100613.34
2022-09-03T22:28:26.096Z,100626.91
2022-09-03T22:31:28.046Z,100624.78
2022-09-03T22:34:42.247Z,100618.62
2022-09-03T22:37:44.106Z,100620.75
2022-09-03T22:40:58.272Z,100614.47
2022-09-03T22:44:05.983Z,100622.50
2022-09-03T22:47:13.733Z,100614.09
2022-09-03T22:50:20.135Z,100611.19
2022-09-03T22:53:33.234Z,100615.91
2022-09-03T22:56:36.793Z,100602.87
2022-09-03T22:59:43.010Z,100613.06
2022-09-03T23:02:46.192Z,100614.19
2022-09-03T23:05:52.733Z,100604.97
2022-09-03T23:09:03.870Z,100621.84
2022-09-03T23:12:07.221Z,100620.63
2022-09-03T23:15:11.575Z,100616.03
2022-09-03T23:18:18.029Z,100617.69
2022-09-03T23:21:40.843Z,100618.75
2022-09-03T23:24:42.706Z,100616.41
2022-09-03T23:27:47.684Z,100621.53
2022-09-03T23:30:50.781Z,100621.75
2022-09-03T23:33:53.943Z,100631.38
2022-09-03T23:37:31.680Z,100621.69
2022-09-03T23:40:35.930Z,100614.56
2022-09-03T23:43:38.551Z,100618.94
2022-09-03T23:46:53.829Z,100620.47
2022-09-03T23:50:25.326Z,100626.19
2022-09-03T23:53:40.173Z,100626.78
2022-09-03T23:56:49.847Z,100628.41
